Berkeley, California
Current Conditions -  °F | °C
As of 8:53 PM on Saturday 20 Dec 2014 (Local Time) from KOAK Reporting Station
Overcast Overcast  
Wind Chill: 58°   Ceiling: 1900
Heat Index: 58°   Visibility: 10mi
Dew Point: 53°   Wind: 10mph
Humidity: 84%   Direction: 190°S
Pressure: 30.25"   Gusts: NA
Location:  37.87°N, 122.27°W
Report Text: KOAK 210453Z 19009KT 10SM BKN019 OVC025 14/12 A3025 RMK AO2 SLP242 T01440117
Loading
Personal Weather Stations






























Interactive Weather Map New forecast layout! Learn more

10-Day Weather Forecast

Advertisements
Track Severe Weather on mobile